Time;durP1;ratioP1;P1;durP2;ratioP2;P2;SDS_P1;SDS_P2;PMS_P1;PMS_P2;Temp;Humidity;BMP_temperature;BMP_pressure;BME280_temperature;BME280_humidity;BME280_pressure;Samples;Min_cycle;Max_cycle;Signal;HPM_P1;HPM_P2
2022/04/23 00:02:03;;;;;;;10.13;7.43;;;14.20;80.90;;;;;;5073836;28;20422;-75
2022/04/23 00:04:30;;;;;;;10.15;7.55;;;14.10;81.40;;;;;;5075065;28;20411;-75
2022/04/23 00:06:56;;;;;;;13.13;9.13;;;14.10;81.60;;;;;;5075198;28;20120;-74
2022/04/23 00:09:22;;;;;;;11.10;8.02;;;14.10;81.90;;;;;;5074643;28;20392;-75
2022/04/23 00:11:47;;;;;;;9.13;7.35;;;14.00;82.30;;;;;;5074687;28;20029;-75
2022/04/23 00:14:13;;;;;;;10.48;8.00;;;14.00;82.60;;;;;;5074880;28;20021;-75
2022/04/23 00:16:38;;;;;;;9.75;8.32;;;14.00;82.90;;;;;;5074921;28;20500;-75
2022/04/23 00:19:04;;;;;;;8.48;7.50;;;14.00;83.10;;;;;;5074470;28;20033;-74
2022/04/23 00:21:30;;;;;;;8.15;6.88;;;14.00;83.10;;;;;;5074450;28;20062;-74
2022/04/23 00:23:55;;;;;;;10.15;7.70;;;14.10;83.10;;;;;;5074446;28;20032;-74
2022/04/23 00:26:21;;;;;;;11.18;8.05;;;14.10;83.30;;;;;;5074320;28;20024;-75
2022/04/23 00:28:47;;;;;;;13.10;8.93;;;14.10;83.40;;;;;;5074327;28;20031;-75
2022/04/23 00:31:14;;;;;;;11.93;8.52;;;14.10;83.50;;;;;;5074275;28;20023;-74
2022/04/23 00:33:40;;;;;;;12.82;8.95;;;14.00;84.20;;;;;;5073951;28;20476;-74
2022/04/23 00:36:10;;;;;;;11.13;8.35;;;13.90;84.80;;;;;;5074343;28;20044;-75
2022/04/23 00:38:42;;;;;;;11.77;8.73;;;13.90;85.00;;;;;;5074385;28;20032;-74
2022/04/23 00:41:43;;;;;;;10.60;8.10;;;13.90;85.40;;;;;;5074094;28;20028;-75
2022/04/23 00:43:54;;;;;;;13.77;8.48;;;13.80;85.80;;;;;;5073850;28;20021;-75
2022/04/23 00:46:20;;;;;;;15.50;10.05;;;13.80;86.00;;;;;;5073682;28;20028;-75
2022/04/23 00:48:45;;;;;;;12.95;9.20;;;13.80;86.20;;;;;;5073943;28;20541;-75
2022/04/23 00:51:13;;;;;;;13.02;9.43;;;13.80;86.50;;;;;;5074164;28;20028;-74
2022/04/23 00:53:39;;;;;;;16.23;9.48;;;13.80;86.70;;;;;;5074170;28;20031;-75
2022/04/23 00:56:05;;;;;;;13.45;10.75;;;13.80;86.80;;;;;;5073952;28;20368;-74
2022/04/23 00:58:31;;;;;;;10.40;9.30;;;13.80;87.70;;;;;;5073655;28;20483;-75
2022/04/23 01:00:56;;;;;;;16.55;10.75;;;13.90;87.20;;;;;;5073396;28;20024;-75
2022/04/23 01:03:22;;;;;;;13.68;11.55;;;13.90;87.40;;;;;;5073507;28;20112;-75
2022/04/23 01:05:49;;;;;;;14.80;11.38;;;13.80;87.90;;;;;;5073697;28;20025;-75
2022/04/23 01:08:18;;;;;;;14.52;11.65;;;13.70;88.20;;;;;;5073768;28;20028;-75
2022/04/23 01:10:44;;;;;;;13.63;10.45;;;13.70;88.50;;;;;;5073101;28;20040;-75
2022/04/23 01:13:11;;;;;;;12.05;10.23;;;13.70;88.70;;;;;;5073442;28;20151;-75
2022/04/23 01:15:37;;;;;;;15.98;11.93;;;13.70;88.90;;;;;;5073800;28;20047;-75
2022/04/23 01:18:03;;;;;;;15.18;11.90;;;13.80;89.00;;;;;;5073471;28;20525;-75
2022/04/23 01:20:29;;;;;;;17.08;13.27;;;13.70;89.10;;;;;;5073428;28;20032;-74
2022/04/23 01:22:55;;;;;;;15.35;12.23;;;13.70;89.40;;;;;;5073416;28;20468;-75
2022/04/23 01:25:22;;;;;;;15.48;11.63;;;13.60;89.90;;;;;;5073254;28;20372;-75
2022/04/23 01:27:50;;;;;;;15.48;12.05;;;13.60;90.00;;;;;;5073386;28;20114;-75
2022/04/23 01:30:16;;;;;;;18.60;13.45;;;13.70;90.00;;;;;;5073033;28;20471;-75
2022/04/23 01:32:42;;;;;;;21.60;13.82;;;13.70;89.90;;;;;;5073804;28;20104;-75
2022/04/23 01:35:08;;;;;;;17.83;14.52;;;13.70;90.10;;;;;;5073619;28;20049;-75
2022/04/23 01:37:33;;;;;;;16.70;13.60;;;13.50;90.50;;;;;;5073415;28;20025;-75
2022/04/23 01:39:59;;;;;;;16.23;12.75;;;13.50;90.80;;;;;;5073298;28;20055;-75
2022/04/23 01:42:25;;;;;;;14.73;12.45;;;13.40;90.80;;;;;;5072981;28;20021;-74
2022/04/23 01:44:52;;;;;;;20.33;14.45;;;13.40;91.00;;;;;;5072991;28;20032;-74
2022/04/23 01:47:18;;;;;;;15.60;13.23;;;13.50;91.10;;;;;;5073122;28;20108;-75
2022/04/23 01:49:44;;;;;;;17.40;14.30;;;13.40;91.10;;;;;;5073303;28;20059;-75
2022/04/23 01:52:13;;;;;;;16.25;13.45;;;13.50;91.10;;;;;;5073031;28;20035;-75
2022/04/23 01:54:39;;;;;;;20.02;14.55;;;13.60;91.10;;;;;;5072929;28;20029;-75
2022/04/23 01:57:05;;;;;;;20.42;14.68;;;13.60;91.00;;;;;;5073230;28;20027;-75
2022/04/23 01:59:31;;;;;;;20.27;15.05;;;13.60;90.90;;;;;;5073267;28;20033;-75
2022/04/23 02:01:58;;;;;;;18.67;14.63;;;13.60;91.10;;;;;;5073087;28;20119;-75
2022/04/23 02:04:24;;;;;;;18.20;15.32;;;13.50;91.30;;;;;;5073080;28;20028;-75
2022/04/23 02:06:50;;;;;;;18.27;14.45;;;13.50;91.40;;;;;;5073058;28;20023;-75
2022/04/23 02:09:17;;;;;;;19.70;15.15;;;13.50;91.50;;;;;;5072890;28;20052;-75
2022/04/23 02:11:43;;;;;;;21.77;17.88;;;13.40;91.60;;;;;;5072896;28;20467;-75
2022/04/23 02:14:09;;;;;;;18.90;15.20;;;13.40;91.70;;;;;;5072855;28;20082;-75
2022/04/23 02:16:35;;;;;;;20.30;15.82;;;13.30;91.90;;;;;;5072512;28;20025;-75
2022/04/23 02:19:03;;;;;;;19.40;16.17;;;13.40;91.90;;;;;;5072908;28;20080;-75
2022/04/23 02:21:29;;;;;;;17.38;15.27;;;13.40;91.90;;;;;;5073190;28;20031;-75
2022/04/23 02:23:55;;;;;;;18.83;16.08;;;13.30;92.00;;;;;;5072824;28;20070;-75
2022/04/23 02:26:22;;;;;;;18.65;16.02;;;13.30;92.10;;;;;;5075995;28;20078;-75
2022/04/23 02:28:48;;;;;;;18.45;15.40;;;13.40;92.10;;;;;;5076581;28;20028;-75
2022/04/23 02:31:14;;;;;;;19.23;14.77;;;13.40;92.30;;;;;;5076623;28;20016;-75
2022/04/23 02:33:40;;;;;;;20.42;14.73;;;13.40;92.00;;;;;;5076894;28;20048;-75
2022/04/23 02:36:06;;;;;;;14.95;12.50;;;13.50;91.90;;;;;;5076840;28;20357;-75
2022/04/23 02:38:32;;;;;;;20.30;16.33;;;13.60;91.70;;;;;;5076653;28;20037;-75
2022/04/23 02:40:58;;;;;;;20.15;16.33;;;13.60;91.70;;;;;;5076528;28;20024;-75
2022/04/23 02:43:24;;;;;;;19.52;15.30;;;13.60;91.60;;;;;;5076632;28;20082;-75
2022/04/23 02:45:49;;;;;;;19.55;15.15;;;13.50;91.70;;;;;;5076567;28;20020;-74
2022/04/23 02:48:15;;;;;;;21.15;17.40;;;13.50;91.70;;;;;;5076183;28;20024;-75
2022/04/23 02:50:41;;;;;;;24.67;16.55;;;13.60;91.70;;;;;;5076151;28;20480;-74
2022/04/23 02:53:08;;;;;;;19.80;15.95;;;13.50;91.80;;;;;;5076194;28;20070;-75
2022/04/23 02:55:35;;;;;;;22.90;16.20;;;13.50;91.80;;;;;;5076388;28;20028;-75
2022/04/23 02:58:09;;;;;;;19.42;15.20;;;13.50;91.90;;;;;;5076249;28;20020;-75
2022/04/23 03:00:38;;;;;;;19.23;16.20;;;13.40;91.90;;;;;;5076202;28;20126;-75
2022/04/23 03:03:05;;;;;;;20.25;17.00;;;13.50;92.00;;;;;;5076133;28;20120;-75
2022/04/23 03:05:31;;;;;;;20.85;15.20;;;13.50;92.00;;;;;;5076254;28;20036;-75
2022/04/23 03:07:59;;;;;;;21.70;16.95;;;13.50;92.00;;;;;;5076208;28;20104;-75
2022/04/23 03:10:26;;;;;;;20.25;17.20;;;13.50;91.90;;;;;;5075838;28;20076;-75
2022/04/23 03:12:52;;;;;;;19.38;16.05;;;13.60;92.00;;;;;;5075770;28;20436;-75
2022/04/23 03:15:17;;;;;;;17.95;15.07;;;13.60;92.00;;;;;;5075934;28;20092;-75
2022/04/23 03:17:44;;;;;;;19.67;16.05;;;13.60;91.90;;;;;;5075695;28;20028;-75
2022/04/23 03:20:12;;;;;;;20.15;15.45;;;13.60;91.80;;;;;;5075561;28;20048;-75
2022/04/23 03:22:38;;;;;;;17.67;14.27;;;13.60;91.80;;;;;;5075611;28;20047;-75
2022/04/23 03:25:04;;;;;;;21.25;16.55;;;13.70;91.70;;;;;;5075709;28;20382;-75
2022/04/23 03:27:30;;;;;;;21.17;17.27;;;13.80;91.60;;;;;;5075806;28;20021;-75
2022/04/23 03:29:59;;;;;;;20.58;17.67;;;13.80;91.50;;;;;;5075850;28;20032;-74
2022/04/23 03:32:25;;;;;;;18.90;16.58;;;13.70;91.60;;;;;;5075665;28;20065;-75
2022/04/23 03:34:51;;;;;;;22.02;16.92;;;13.60;91.80;;;;;;5075414;28;20104;-75
2022/04/23 03:37:17;;;;;;;20.75;16.95;;;13.60;91.70;;;;;;5074409;28;20102;-75
2022/04/23 03:39:44;;;;;;;21.85;18.77;;;13.60;91.80;;;;;;5075211;28;20036;-75
2022/04/23 03:42:10;;;;;;;21.80;18.55;;;13.60;91.90;;;;;;5075259;28;20115;-75
2022/04/23 03:44:36;;;;;;;20.30;17.23;;;13.40;92.20;;;;;;5075608;28;20027;-75
2022/04/23 03:47:02;;;;;;;18.27;14.80;;;13.30;92.50;;;;;;5075437;28;20090;-75
2022/04/23 03:49:29;;;;;;;22.52;18.23;;;13.30;92.70;;;;;;5075195;28;20025;-74
2022/04/23 03:51:55;;;;;;;19.70;16.60;;;13.40;92.60;;;;;;5075393;28;20024;-75
2022/04/23 03:54:20;;;;;;;18.67;15.50;;;13.40;92.40;;;;;;5075043;28;20131;-74
2022/04/23 03:56:47;;;;;;;23.02;18.80;;;13.50;92.20;;;;;;5075167;28;20029;-75
2022/04/23 03:59:14;;;;;;;20.60;17.42;;;13.50;92.20;;;;;;5074673;28;20037;-75
2022/04/23 04:01:40;;;;;;;22.60;19.52;;;13.50;92.20;;;;;;5075066;28;20138;-75
2022/04/23 04:04:06;;;;;;;21.95;19.00;;;13.50;92.20;;;;;;5074859;28;20103;-75
2022/04/23 04:06:33;;;;;;;21.75;18.60;;;13.40;92.40;;;;;;5075129;28;20099;-75
2022/04/23 04:08:59;;;;;;;23.10;19.30;;;13.40;92.50;;;;;;5074869;28;20024;-74
2022/04/23 04:11:24;;;;;;;23.42;19.73;;;13.30;92.60;;;;;;5074783;28;20063;-73
2022/04/23 04:13:50;;;;;;;20.05;15.90;;;13.20;92.80;;;;;;5074796;28;20373;-73
2022/04/23 04:16:17;;;;;;;18.63;15.68;;;13.00;93.10;;;;;;5074714;28;20020;-73
2022/04/23 04:18:45;;;;;;;20.25;17.00;;;13.10;93.20;;;;;;5074498;28;20036;-73
2022/04/23 04:21:12;;;;;;;21.88;18.33;;;13.20;93.10;;;;;;5074482;28;20437;-74
2022/04/23 04:23:39;;;;;;;20.17;17.98;;;13.20;93.00;;;;;;5074838;28;20134;-74
2022/04/23 04:26:06;;;;;;;30.92;19.85;;;13.20;92.90;;;;;;5074745;28;20051;-74
2022/04/23 04:28:32;;;;;;;23.73;19.92;;;13.20;93.00;;;;;;5074464;28;20047;-74
2022/04/23 04:33:41;;;;;;;18.45;15.07;;;13.10;93.20;;;;;;5074343;28;20741;-74
2022/04/23 04:36:07;;;;;;;21.52;18.52;;;13.10;93.30;;;;;;5074492;28;20028;-74
2022/04/23 04:38:33;;;;;;;22.50;19.42;;;13.10;93.30;;;;;;5074265;28;20388;-74
2022/04/23 04:40:59;;;;;;;20.85;18.40;;;12.90;93.50;;;;;;5074288;28;20070;-74
2022/04/23 04:43:25;;;;;;;19.77;17.23;;;12.80;93.70;;;;;;5074097;28;20059;-74
2022/04/23 04:45:51;;;;;;;24.48;20.35;;;12.70;94.20;;;;;;5074045;28;20422;-74
2022/04/23 04:48:16;;;;;;;21.25;18.27;;;12.70;94.20;;;;;;5073878;28;20025;-74
2022/04/23 04:50:42;;;;;;;22.48;18.83;;;12.50;94.40;;;;;;5073698;28;20027;-74
2022/04/23 04:53:08;;;;;;;19.13;16.58;;;12.40;94.80;;;;;;5074117;28;20047;-74
2022/04/23 04:55:36;;;;;;;20.65;17.85;;;12.40;94.80;;;;;;5073857;28;20482;-74
2022/04/23 04:58:01;;;;;;;22.70;18.05;;;12.50;94.80;;;;;;5074015;28;20032;-74
2022/04/23 05:00:27;;;;;;;22.02;18.65;;;12.60;94.70;;;;;;5073657;28;20031;-74
2022/04/23 05:02:54;;;;;;;21.55;18.95;;;12.50;94.70;;;;;;5073894;28;20150;-74
2022/04/23 05:05:20;;;;;;;22.13;19.52;;;12.50;94.90;;;;;;5073554;28;20041;-74
2022/04/23 05:07:46;;;;;;;22.73;20.02;;;12.40;95.10;;;;;;5073695;28;20384;-73
2022/04/23 05:10:11;;;;;;;20.38;17.98;;;12.40;95.20;;;;;;5073532;28;20044;-74
2022/04/23 05:12:37;;;;;;;22.10;18.85;;;12.50;95.10;;;;;;5073240;28;20104;-76
2022/04/23 05:15:03;;;;;;;22.40;18.52;;;12.40;95.10;;;;;;5073014;28;20025;-74
2022/04/23 05:17:28;;;;;;;20.63;17.40;;;12.50;95.20;;;;;;5073696;28;20021;-74
2022/04/23 05:19:54;;;;;;;21.42;17.45;;;12.50;95.10;;;;;;5073164;28;20036;-74
2022/04/23 05:22:19;;;;;;;18.75;16.15;;;12.50;94.90;;;;;;5073640;28;20055;-73
2022/04/23 05:24:45;;;;;;;23.50;19.05;;;12.60;94.90;;;;;;5073384;28;20039;-74
2022/04/23 05:27:10;;;;;;;21.90;17.73;;;12.70;94.70;;;;;;5073273;28;20012;-73
2022/04/23 05:29:36;;;;;;;21.25;18.55;;;12.70;94.70;;;;;;5073472;28;20020;-74
2022/04/23 05:32:02;;;;;;;22.17;17.38;;;12.70;94.50;;;;;;5073542;28;20029;-73
2022/04/23 05:34:28;;;;;;;19.60;15.93;;;12.70;94.60;;;;;;5073387;28;20098;-73
2022/04/23 05:36:54;;;;;;;20.50;17.60;;;12.70;94.60;;;;;;5073384;28;20055;-74
2022/04/23 05:39:20;;;;;;;22.05;18.15;;;12.70;94.70;;;;;;5073239;28;20067;-74
2022/04/23 05:41:45;;;;;;;19.50;16.80;;;12.70;94.60;;;;;;5073176;28;20464;-75
2022/04/23 05:44:11;;;;;;;19.45;15.30;;;12.70;94.50;;;;;;5073201;28;20024;-75
2022/04/23 05:46:36;;;;;;;20.65;17.23;;;12.70;94.50;;;;;;5073411;28;20012;-73
2022/04/23 05:49:02;;;;;;;18.17;16.08;;;12.70;94.60;;;;;;5073313;28;20024;-73
2022/04/23 05:51:27;;;;;;;18.13;15.50;;;12.80;94.60;;;;;;5073116;28;20021;-74
2022/04/23 05:53:53;;;;;;;18.52;15.60;;;12.90;94.40;;;;;;5072701;28;20030;-74
2022/04/23 05:56:19;;;;;;;21.13;16.95;;;12.90;94.10;;;;;;5072898;28;20110;-73
2022/04/23 05:58:44;;;;;;;20.08;17.65;;;12.80;94.10;;;;;;5072776;28;20040;-73
2022/04/23 06:01:10;;;;;;;33.47;17.88;;;12.80;94.20;;;;;;5076204;28;20029;-73
2022/04/23 06:03:35;;;;;;;22.63;17.00;;;12.80;94.50;;;;;;5076803;28;20025;-73
2022/04/23 06:06:01;;;;;;;20.35;16.80;;;12.80;94.30;;;;;;5077321;28;20483;-74
2022/04/23 06:08:27;;;;;;;23.02;18.27;;;12.70;94.40;;;;;;5076998;28;20021;-73
2022/04/23 06:10:52;;;;;;;19.58;16.85;;;12.70;94.50;;;;;;5076383;28;20056;-73
2022/04/23 06:13:18;;;;;;;19.95;16.25;;;12.70;94.70;;;;;;5076784;28;20115;-74
2022/04/23 06:15:43;;;;;;;24.35;16.50;;;12.80;94.70;;;;;;5077067;28;20033;-75
2022/04/23 06:18:09;;;;;;;19.85;14.85;;;12.90;94.60;;;;;;5076733;28;20029;-74
2022/04/23 06:20:35;;;;;;;24.23;15.50;;;12.90;94.40;;;;;;5076865;28;20021;-73
2022/04/23 06:23:04;;;;;;;19.20;15.65;;;13.00;94.40;;;;;;5076773;28;20017;-75
2022/04/23 06:25:31;;;;;;;19.25;14.93;;;13.10;94.20;;;;;;5076627;28;20070;-75
2022/04/23 06:27:56;;;;;;;17.40;15.15;;;13.10;94.00;;;;;;5075923;28;20035;-75
2022/04/23 06:30:22;;;;;;;19.40;14.75;;;13.10;93.70;;;;;;5076754;28;20021;-74
2022/04/23 06:32:47;;;;;;;17.10;15.02;;;13.10;93.70;;;;;;5076565;28;20060;-76
2022/04/23 06:35:13;;;;;;;21.40;15.43;;;13.10;93.70;;;;;;5076070;28;20028;-75
2022/04/23 06:37:43;;;;;;;20.27;15.90;;;13.00;93.80;;;;;;5076473;28;20035;-75
2022/04/23 06:40:13;;;;;;;17.88;14.77;;;13.00;93.80;;;;;;5076631;28;20032;-75
2022/04/23 06:42:39;;;;;;;18.35;15.07;;;13.00;93.80;;;;;;5076361;28;20201;-75
2022/04/23 06:45:06;;;;;;;19.27;14.68;;;13.00;93.90;;;;;;5076301;28;20028;-75
2022/04/23 06:47:31;;;;;;;18.33;14.15;;;13.00;94.10;;;;;;5076247;28;20029;-75
2022/04/23 06:49:59;;;;;;;16.83;14.65;;;13.10;93.90;;;;;;5076658;28;20023;-75
2022/04/23 06:52:25;;;;;;;18.70;15.27;;;13.20;93.80;;;;;;5076541;28;20027;-75
2022/04/23 06:54:52;;;;;;;17.40;14.05;;;13.30;93.80;;;;;;5076080;28;20021;-75
2022/04/23 06:57:18;;;;;;;19.23;15.50;;;13.30;93.60;;;;;;5075958;28;20025;-75
2022/04/23 06:59:43;;;;;;;19.05;15.85;;;13.40;93.40;;;;;;5076054;28;20090;-75
2022/04/23 07:02:09;;;;;;;17.70;15.40;;;13.50;93.40;;;;;;5075811;28;20047;-75
2022/04/23 07:04:35;;;;;;;18.45;14.05;;;13.60;93.10;;;;;;5076019;28;20020;-75
2022/04/23 07:07:00;;;;;;;19.65;15.52;;;13.60;92.80;;;;;;5075790;28;20022;-75
2022/04/23 07:09:26;;;;;;;17.60;14.32;;;13.70;92.70;;;;;;5074609;28;20040;-75
2022/04/23 07:11:51;;;;;;;16.88;14.45;;;13.80;92.50;;;;;;5072825;28;20501;-75
2022/04/23 07:14:17;;;;;;;17.15;15.35;;;13.90;92.50;;;;;;5073885;28;20024;-74
2022/04/23 07:16:43;;;;;;;19.35;15.73;;;14.00;92.30;;;;;;5075364;28;20055;-74
2022/04/23 07:19:11;;;;;;;17.88;15.80;;;14.00;92.10;;;;;;5073996;28;20048;-75
2022/04/23 07:21:37;;;;;;;18.60;15.32;;;14.00;92.10;;;;;;5074040;28;20036;-75
2022/04/23 07:24:10;;;;;;;17.77;14.35;;;14.00;92.60;;;;;;5074255;28;20191;-75
2022/04/23 07:26:36;;;;;;;17.10;15.30;;;14.10;92.20;;;;;;5073650;28;20033;-76
2022/04/23 07:29:08;;;;;;;18.92;15.07;;;14.30;91.50;;;;;;5073638;28;20388;-75
2022/04/23 07:31:34;;;;;;;16.73;14.32;;;14.50;91.20;;;;;;5072401;28;20033;-75
2022/04/23 07:39:28;;;;;;;17.80;15.90;;;14.70;90.70;;;;;;5073738;28;20085;-75
2022/04/23 07:41:54;;;;;;;19.17;14.63;;;14.70;90.00;;;;;;5073614;28;20028;-75
2022/04/23 07:44:21;;;;;;;16.83;14.82;;;14.70;90.00;;;;;;5073183;28;20051;-75
2022/04/23 07:46:47;;;;;;;18.73;14.85;;;14.70;90.10;;;;;;5072692;28;20081;-75
2022/04/23 07:49:13;;;;;;;15.30;13.68;;;14.80;90.00;;;;;;5073348;28;20050;-75
2022/04/23 07:51:39;;;;;;;18.58;14.10;;;14.80;89.70;;;;;;5074108;28;20128;-75
2022/04/23 07:54:05;;;;;;;15.10;13.55;;;14.90;90.00;;;;;;5073529;28;20036;-75
2022/04/23 07:56:30;;;;;;;17.73;14.35;;;15.10;89.50;;;;;;5073228;28;20021;-75
2022/04/23 07:58:56;;;;;;;16.40;13.93;;;15.10;88.00;;;;;;5073453;28;20037;-75
2022/04/23 08:01:21;;;;;;;16.25;14.35;;;15.10;87.80;;;;;;5074016;28;20017;-75
2022/04/23 08:03:47;;;;;;;16.48;14.40;;;15.20;88.40;;;;;;5073309;28;20052;-75
2022/04/23 08:06:13;;;;;;;17.13;13.60;;;15.20;87.90;;;;;;5073071;28;20036;-75
2022/04/23 08:08:39;;;;;;;16.55;14.82;;;15.30;88.10;;;;;;5072929;28;20671;-75
2022/04/23 08:11:06;;;;;;;18.60;15.88;;;15.30;87.90;;;;;;5072963;28;20059;-75
2022/04/23 08:13:32;;;;;;;17.05;14.98;;;15.30;88.50;;;;;;5073494;28;20103;-75
2022/04/23 08:15:59;;;;;;;19.50;15.98;;;15.30;88.10;;;;;;5073638;28;20115;-75
2022/04/23 08:18:29;;;;;;;17.08;14.52;;;15.40;88.80;;;;;;5072766;28;20051;-75
2022/04/23 08:20:55;;;;;;;16.90;15.10;;;15.50;86.90;;;;;;5073312;28;20052;-75
2022/04/23 08:23:21;;;;;;;18.20;14.52;;;15.60;86.30;;;;;;5072501;28;20055;-75
2022/04/23 08:25:47;;;;;;;20.15;15.95;;;15.70;86.90;;;;;;5073231;28;20047;-75
2022/04/23 08:30:57;;;;;;;17.25;15.30;;;15.70;85.30;;;;;;5072728;28;20032;-75
2022/04/23 08:33:23;;;;;;;16.58;14.57;;;15.80;85.20;;;;;;5073216;28;20024;-75
2022/04/23 08:35:50;;;;;;;18.15;15.43;;;15.90;85.50;;;;;;5072639;28;20384;-75
2022/04/23 08:38:16;;;;;;;17.42;15.02;;;16.10;84.80;;;;;;5072754;28;20024;-75
2022/04/23 08:40:44;;;;;;;19.80;15.10;;;16.20;84.80;;;;;;5072332;28;20071;-75
2022/04/23 08:43:10;;;;;;;17.98;16.08;;;16.20;84.10;;;;;;5072527;28;20052;-75
2022/04/23 08:45:37;;;;;;;18.42;16.48;;;16.30;84.10;;;;;;5070613;28;20021;-75
2022/04/23 08:48:12;;;;;;;19.73;16.00;;;16.30;83.10;;;;;;5071754;28;20391;-75
2022/04/23 08:50:39;;;;;;;20.25;16.30;;;16.40;82.50;;;;;;5072702;28;20020;-75
2022/04/23 08:53:18;;;;;;;18.85;16.70;;;16.40;81.90;;;;;;5072571;28;20422;-75
2022/04/23 08:55:46;;;;;;;19.40;15.88;;;16.50;82.00;;;;;;5072115;28;20048;-76
2022/04/23 08:58:13;;;;;;;21.85;16.10;;;16.60;81.00;;;;;;5069570;28;20021;-76
2022/04/23 09:00:39;;;;;;;18.42;16.42;;;16.70;81.50;;;;;;5071861;28;20437;-75
2022/04/23 09:03:04;;;;;;;19.13;15.85;;;16.80;80.90;;;;;;5071937;28;20105;-75
2022/04/23 09:05:31;;;;;;;16.83;14.98;;;16.80;79.80;;;;;;5072212;28;20143;-76
2022/04/23 09:07:57;;;;;;;19.52;16.13;;;17.00;79.30;;;;;;5069809;28;20020;-75
2022/04/23 09:10:57;;;;;;;18.77;15.38;;;17.10;79.30;;;;;;5071838;28;20041;-76
2022/04/23 09:13:30;;;;;;;18.00;15.40;;;17.20;79.10;;;;;;5072372;28;20537;-76
2022/04/23 09:24:16;;;;;;;21.17;15.30;;;17.40;76.80;;;;;;5072225;28;20040;-75
2022/04/23 09:26:42;;;;;;;18.80;16.08;;;17.50;76.10;;;;;;5072245;28;20044;-76
2022/04/23 09:29:18;;;;;;;22.10;16.08;;;17.50;76.20;;;;;;5072249;28;20421;-76
2022/04/23 09:31:44;;;;;;;21.98;16.20;;;17.60;75.90;;;;;;5071729;28;20372;-76
2022/04/23 09:34:21;;;;;;;19.70;16.75;;;17.80;75.80;;;;;;5071372;28;20081;-76
2022/04/23 09:36:57;;;;;;;20.48;16.10;;;17.80;75.20;;;;;;5071919;28;20052;-76
2022/04/23 09:39:34;;;;;;;20.58;16.35;;;17.60;73.90;;;;;;5071725;28;20032;-76
2022/04/23 09:42:17;;;;;;;20.95;16.10;;;17.50;74.40;;;;;;5071808;28;20029;-75
2022/04/23 09:44:44;;;;;;;16.85;15.00;;;17.70;74.80;;;;;;5072197;28;20028;-76
2022/04/23 09:47:10;;;;;;;24.02;17.10;;;17.70;73.90;;;;;;5071831;28;20032;-76
2022/04/23 09:49:38;;;;;;;22.95;16.98;;;17.80;72.60;;;;;;5071080;28;20094;-75
2022/04/23 09:52:09;;;;;;;19.83;15.10;;;17.80;74.00;;;;;;5071715;28;20475;-75
2022/04/23 09:54:37;;;;;;;19.15;15.82;;;17.90;72.60;;;;;;5071626;28;20031;-75
2022/04/23 09:57:03;;;;;;;19.02;15.85;;;18.00;72.70;;;;;;5071606;28;20024;-75
2022/04/23 09:59:29;;;;;;;19.80;15.43;;;17.90;72.40;;;;;;5071337;28;20123;-75
2022/04/23 10:01:56;;;;;;;20.27;15.15;;;18.00;72.00;;;;;;5071070;28;20024;-76
2022/04/23 10:04:27;;;;;;;18.05;15.73;;;18.00;71.50;;;;;;5071079;28;20468;-75
2022/04/23 10:06:54;;;;;;;18.83;15.13;;;18.10;71.40;;;;;;5071401;28;20115;-75
2022/04/23 10:09:21;;;;;;;19.48;15.38;;;18.20;71.30;;;;;;5071256;28;20041;-76
2022/04/23 10:11:50;;;;;;;18.98;16.23;;;18.30;69.50;;;;;;5071654;28;20036;-75
2022/04/23 10:14:20;;;;;;;19.20;15.40;;;18.20;69.50;;;;;;5069061;28;20103;-75
2022/04/23 10:16:48;;;;;;;17.95;15.65;;;18.10;68.40;;;;;;5071243;28;20036;-76
2022/04/23 10:19:15;;;;;;;21.65;16.58;;;18.00;69.20;;;;;;5070790;28;20040;-76
2022/04/23 10:22:11;;;;;;;18.63;14.05;;;18.20;69.30;;;;;;5071306;28;20020;-76
2022/04/23 10:24:48;;;;;;;21.15;16.58;;;18.20;69.50;;;;;;5069276;28;20036;-75
2022/04/23 10:27:15;;;;;;;19.02;15.10;;;18.40;68.90;;;;;;5071336;28;20036;-76
2022/04/23 10:29:41;;;;;;;17.95;14.55;;;18.50;67.30;;;;;;5070915;28;20044;-75
2022/04/23 10:32:35;;;;;;;18.02;15.35;;;18.40;67.50;;;;;;5071403;28;20487;-76
2022/04/23 10:35:02;;;;;;;17.30;14.40;;;18.40;67.90;;;;;;5070251;28;20575;-75
2022/04/23 10:37:28;;;;;;;16.48;13.93;;;18.40;67.80;;;;;;5068844;28;20060;-76
2022/04/23 10:39:53;;;;;;;20.00;14.68;;;18.60;67.80;;;;;;5069979;28;20045;-76
2022/04/23 10:42:23;;;;;;;19.50;16.08;;;18.80;66.90;;;;;;5069667;28;20131;-76
2022/04/23 10:44:50;;;;;;;19.75;15.40;;;18.90;67.60;;;;;;5069810;28;20086;-76
2022/04/23 10:47:34;;;;;;;20.92;15.68;;;19.00;66.50;;;;;;5074238;28;20101;-76
2022/04/23 10:50:16;;;;;;;19.10;15.55;;;19.10;65.40;;;;;;5073984;28;20048;-76
2022/04/23 10:52:42;;;;;;;23.10;16.65;;;19.20;64.60;;;;;;5074381;28;20034;-76
2022/04/23 10:55:09;;;;;;;18.23;15.40;;;19.20;66.10;;;;;;5070576;28;20534;-75
2022/04/23 10:57:35;;;;;;;18.85;15.70;;;19.20;65.60;;;;;;5074394;28;20048;-77
2022/04/23 11:00:17;;;;;;;20.80;16.00;;;19.30;65.70;;;;;;5073771;28;20056;-76
2022/04/23 11:02:48;;;;;;;19.02;15.10;;;19.40;65.00;;;;;;5074875;28;20102;-76
2022/04/23 11:13:48;;;;;;;20.75;17.45;;;19.20;65.20;;;;;;5072477;28;20400;-75
2022/04/23 11:16:18;;;;;;;19.75;16.67;;;19.20;65.00;;;;;;5074304;28;20024;-75
2022/04/23 11:18:46;;;;;;;20.45;18.10;;;19.30;64.30;;;;;;5074301;28;20059;-74
2022/04/23 11:21:23;;;;;;;20.58;17.55;;;19.40;64.40;;;;;;5071507;28;20020;-73
2022/04/23 11:23:50;;;;;;;21.83;15.85;;;19.50;63.10;;;;;;5073216;28;20442;-77
2022/04/23 11:26:22;;;;;;;19.60;15.75;;;19.60;64.50;;;;;;5073396;28;20029;-76
2022/04/23 11:28:58;;;;;;;22.70;18.08;;;19.70;63.50;;;;;;5074284;28;20037;-75
2022/04/23 11:31:24;;;;;;;26.30;15.93;;;19.90;62.30;;;;;;5074162;28;20048;-76
2022/04/23 11:33:51;;;;;;;19.13;16.10;;;19.90;61.60;;;;;;5074492;28;20067;-76
2022/04/23 11:36:25;;;;;;;18.52;15.80;;;20.00;62.10;;;;;;5073665;28;20028;-75
2022/04/23 11:38:51;;;;;;;19.67;15.95;;;20.30;62.70;;;;;;5073934;28;20491;-75
2022/04/23 11:41:49;;;;;;;24.45;18.10;;;20.40;62.50;;;;;;5073938;28;20032;-75
2022/04/23 11:47:08;;;;;;;19.33;17.13;;;20.70;60.10;;;;;;5072013;28;20050;-74
2022/04/23 11:49:34;;;;;;;19.83;15.23;;;20.70;59.10;;;;;;5074044;28;20039;-74
2022/04/23 11:52:00;;;;;;;19.95;15.88;;;20.50;59.70;;;;;;5073332;28;20032;-74
2022/04/23 11:54:40;;;;;;;19.75;17.33;;;20.40;59.50;;;;;;5073838;28;20376;-74
2022/04/23 11:57:08;;;;;;;20.10;16.27;;;20.40;60.40;;;;;;5072526;28;20525;-76
2022/04/23 11:59:42;;;;;;;20.38;15.27;;;20.40;59.20;;;;;;5073494;28;20036;-75
2022/04/23 12:02:25;;;;;;;20.80;16.85;;;20.50;58.80;;;;;;5073219;28;20111;-76
2022/04/23 12:04:51;;;;;;;;;;;20.40;58.40;;;;;;5073981;28;20044;-76
2022/04/23 12:07:18;;;;;;;21.75;15.43;;;20.40;58.50;;;;;;5073473;28;20285;-76
2022/04/23 12:09:51;;;;;;;20.65;17.17;;;20.40;59.40;;;;;;5073268;28;20052;-76
2022/04/23 12:12:25;;;;;;;18.45;14.70;;;20.40;58.90;;;;;;5073151;28;20020;-76
2022/04/23 12:14:56;;;;;;;18.63;14.85;;;20.40;57.40;;;;;;5073663;28;20115;-76
2022/04/23 12:17:26;;;;;;;18.48;14.73;;;20.40;57.90;;;;;;5072962;28;20103;-76
2022/04/23 12:19:55;;;;;;;18.23;14.48;;;20.40;57.50;;;;;;5073521;28;20101;-76
2022/04/23 12:22:28;;;;;;;18.90;16.10;;;20.40;57.60;;;;;;5072849;28;20016;-76
2022/04/23 12:25:11;;;;;;;18.92;15.43;;;20.50;57.60;;;;;;5072336;28;20049;-76
2022/04/23 12:27:55;;;;;;;22.27;14.57;;;20.60;56.70;;;;;;5071211;28;20016;-76
2022/04/23 12:41:37;;;;;;;17.30;14.60;;;21.00;56.80;;;;;;5072915;28;20490;-76
2022/04/23 12:44:16;;;;;;;19.50;15.43;;;21.20;55.70;;;;;;5072222;28;20025;-76
2022/04/23 12:46:59;;;;;;;17.13;12.90;;;21.10;55.20;;;;;;5071835;28;20063;-74
2022/04/23 12:49:50;;;;;;;18.25;13.45;;;21.10;55.00;;;;;;5070749;28;20024;-74
2022/04/23 12:52:27;;;;;;;16.50;13.60;;;21.00;55.00;;;;;;5071119;28;20029;-76
2022/04/23 12:55:15;;;;;;;16.63;14.55;;;21.00;55.10;;;;;;5072226;28;20108;-74
2022/04/23 12:57:47;;;;;;;15.43;13.25;;;21.10;55.00;;;;;;5069631;28;20050;-73
2022/04/23 13:00:18;;;;;;;19.27;13.30;;;21.30;55.70;;;;;;5068917;28;20039;-73
2022/04/23 13:02:47;;;;;;;15.52;11.50;;;21.40;55.30;;;;;;5070616;28;20410;-76
2022/04/23 13:05:13;;;;;;;13.98;11.75;;;21.50;54.20;;;;;;5071476;28;20383;-77
2022/04/23 13:10:25;;;;;;;14.23;10.95;;;21.50;52.80;;;;;;5071664;28;20127;-73
2022/04/23 13:12:50;;;;;;;15.48;11.18;;;21.30;53.00;;;;;;5071774;28;20036;-74
2022/04/23 13:15:16;;;;;;;16.85;12.57;;;21.30;52.70;;;;;;5072121;28;20031;-74
2022/04/23 13:17:43;;;;;;;15.23;12.18;;;21.30;52.90;;;;;;5071544;28;20028;-74